sensor_id;sensor_type;location;lat;lon;timestamp;P1;durP1;ratioP1;P2;durP2;ratioP2
18239;SDS011;9244;50.828;4.718;2024-01-15T00:14:50;28.83;;;14.30;;
18239;SDS011;9244;50.828;4.718;2024-01-15T00:17:16;31.10;;;14.50;;
18239;SDS011;9244;50.828;4.718;2024-01-15T00:19:41;21.47;;;12.43;;
18239;SDS011;9244;50.828;4.718;2024-01-15T00:22:07;34.07;;;14.57;;
18239;SDS011;9244;50.828;4.718;2024-01-15T00:24:32;29.47;;;15.77;;
18239;SDS011;9244;50.828;4.718;2024-01-15T00:27:00;30.40;;;15.40;;
18239;SDS011;9244;50.828;4.718;2024-01-15T00:29:28;31.23;;;16.20;;
18239;SDS011;9244;50.828;4.718;2024-01-15T00:31:54;28.97;;;15.57;;
18239;SDS011;9244;50.828;4.718;2024-01-15T00:34:20;27.00;;;14.00;;
18239;SDS011;9244;50.828;4.718;2024-01-15T00:36:45;29.17;;;15.47;;
18239;SDS011;9244;50.828;4.718;2024-01-15T00:39:15;23.10;;;12.83;;
18239;SDS011;9244;50.828;4.718;2024-01-15T00:41:41;30.70;;;15.43;;
18239;SDS011;9244;50.828;4.718;2024-01-15T00:44:07;26.97;;;14.17;;
18239;SDS011;9244;50.828;4.718;2024-01-15T00:46:35;29.23;;;14.67;;
18239;SDS011;9244;50.828;4.718;2024-01-15T00:49:10;27.97;;;15.47;;
18239;SDS011;9244;50.828;4.718;2024-01-15T00:51:37;25.90;;;14.57;;
18239;SDS011;9244;50.828;4.718;2024-01-15T00:54:02;29.20;;;16.50;;
18239;SDS011;9244;50.828;4.718;2024-01-15T00:56:28;26.77;;;16.17;;
18239;SDS011;9244;50.828;4.718;2024-01-15T00:58:54;27.87;;;15.33;;
18239;SDS011;9244;50.828;4.718;2024-01-15T01:01:19;28.67;;;16.20;;
18239;SDS011;9244;50.828;4.718;2024-01-15T01:03:47;25.90;;;14.67;;
18239;SDS011;9244;50.828;4.718;2024-01-15T01:06:13;28.50;;;15.63;;
18239;SDS011;9244;50.828;4.718;2024-01-15T01:08:41;27.07;;;15.80;;
18239;SDS011;9244;50.828;4.718;2024-01-15T01:11:07;28.43;;;14.90;;
18239;SDS011;9244;50.828;4.718;2024-01-15T01:13:32;25.80;;;14.10;;
18239;SDS011;9244;50.828;4.718;2024-01-15T01:16:03;24.80;;;14.50;;
18239;SDS011;9244;50.828;4.718;2024-01-15T01:18:29;24.50;;;14.13;;
18239;SDS011;9244;50.828;4.718;2024-01-15T01:20:54;20.70;;;12.00;;
18239;SDS011;9244;50.828;4.718;2024-01-15T01:23:20;21.13;;;12.77;;
18239;SDS011;9244;50.828;4.718;2024-01-15T01:25:46;19.87;;;11.50;;
18239;SDS011;9244;50.828;4.718;2024-01-15T01:28:11;18.77;;;10.90;;
18239;SDS011;9244;50.828;4.718;2024-01-15T01:30:37;19.13;;;10.50;;
18239;SDS011;9244;50.828;4.718;2024-01-15T01:33:02;17.60;;;11.83;;
18239;SDS011;9244;50.828;4.718;2024-01-15T01:35:28;18.13;;;9.90;;
18239;SDS011;9244;50.828;4.718;2024-01-15T01:37:54;16.37;;;9.47;;
18239;SDS011;9244;50.828;4.718;2024-01-15T01:40:20;17.13;;;9.90;;
18239;SDS011;9244;50.828;4.718;2024-01-15T01:42:45;16.17;;;9.80;;
18239;SDS011;9244;50.828;4.718;2024-01-15T01:45:11;15.73;;;8.70;;
18239;SDS011;9244;50.828;4.718;2024-01-15T01:47:37;14.53;;;8.47;;
18239;SDS011;9244;50.828;4.718;2024-01-15T01:50:03;15.70;;;10.50;;
18239;SDS011;9244;50.828;4.718;2024-01-15T01:52:30;13.50;;;9.50;;
18239;SDS011;9244;50.828;4.718;2024-01-15T01:54:57;13.00;;;8.13;;
18239;SDS011;9244;50.828;4.718;2024-01-15T01:57:23;13.03;;;8.70;;
18239;SDS011;9244;50.828;4.718;2024-01-15T01:59:51;13.53;;;8.20;;
18239;SDS011;9244;50.828;4.718;2024-01-15T02:02:17;13.80;;;7.87;;
18239;SDS011;9244;50.828;4.718;2024-01-15T02:04:43;11.47;;;7.37;;
18239;SDS011;9244;50.828;4.718;2024-01-15T02:07:09;13.93;;;9.00;;
18239;SDS011;9244;50.828;4.718;2024-01-15T02:09:36;13.77;;;8.97;;
18239;SDS011;9244;50.828;4.718;2024-01-15T02:12:02;14.47;;;8.63;;
18239;SDS011;9244;50.828;4.718;2024-01-15T02:14:28;15.97;;;8.87;;
18239;SDS011;9244;50.828;4.718;2024-01-15T02:16:53;14.23;;;8.70;;
18239;SDS011;9244;50.828;4.718;2024-01-15T02:19:21;13.77;;;9.30;;
18239;SDS011;9244;50.828;4.718;2024-01-15T02:21:47;18.77;;;9.00;;
18239;SDS011;9244;50.828;4.718;2024-01-15T02:24:13;14.70;;;9.73;;
18239;SDS011;9244;50.828;4.718;2024-01-15T02:26:40;15.47;;;9.43;;
18239;SDS011;9244;50.828;4.718;2024-01-15T02:29:06;14.93;;;10.03;;
18239;SDS011;9244;50.828;4.718;2024-01-15T02:31:33;16.97;;;9.50;;
18239;SDS011;9244;50.828;4.718;2024-01-15T02:34:00;15.23;;;9.33;;
18239;SDS011;9244;50.828;4.718;2024-01-15T02:36:25;14.40;;;9.03;;
18239;SDS011;9244;50.828;4.718;2024-01-15T02:38:54;15.93;;;9.60;;
18239;SDS011;9244;50.828;4.718;2024-01-15T02:41:21;13.83;;;8.50;;
18239;SDS011;9244;50.828;4.718;2024-01-15T02:43:47;14.63;;;7.93;;
18239;SDS011;9244;50.828;4.718;2024-01-15T02:46:13;16.13;;;8.67;;
18239;SDS011;9244;50.828;4.718;2024-01-15T02:48:43;15.27;;;9.53;;
18239;SDS011;9244;50.828;4.718;2024-01-15T02:51:09;16.53;;;9.03;;
18239;SDS011;9244;50.828;4.718;2024-01-15T02:53:35;16.87;;;9.40;;
18239;SDS011;9244;50.828;4.718;2024-01-15T02:56:01;12.23;;;8.27;;
18239;SDS011;9244;50.828;4.718;2024-01-15T02:58:27;14.10;;;9.17;;
18239;SDS011;9244;50.828;4.718;2024-01-15T03:00:55;12.43;;;8.57;;
18239;SDS011;9244;50.828;4.718;2024-01-15T03:03:21;12.23;;;7.50;;
18239;SDS011;9244;50.828;4.718;2024-01-15T03:05:46;14.80;;;8.97;;
18239;SDS011;9244;50.828;4.718;2024-01-15T03:08:12;15.20;;;7.97;;
18239;SDS011;9244;50.828;4.718;2024-01-15T03:10:38;15.90;;;8.63;;
18239;SDS011;9244;50.828;4.718;2024-01-15T03:13:03;13.33;;;8.27;;
18239;SDS011;9244;50.828;4.718;2024-01-15T03:15:29;16.07;;;9.00;;
18239;SDS011;9244;50.828;4.718;2024-01-15T03:17:54;12.37;;;8.17;;
18239;SDS011;9244;50.828;4.718;2024-01-15T03:20:20;13.60;;;8.37;;
18239;SDS011;9244;50.828;4.718;2024-01-15T03:22:46;14.00;;;8.47;;
18239;SDS011;9244;50.828;4.718;2024-01-15T03:25:11;13.53;;;8.50;;
18239;SDS011;9244;50.828;4.718;2024-01-15T03:27:39;14.10;;;7.13;;
18239;SDS011;9244;50.828;4.718;2024-01-15T03:30:05;13.50;;;7.57;;
18239;SDS011;9244;50.828;4.718;2024-01-15T03:32:34;14.17;;;7.17;;
18239;SDS011;9244;50.828;4.718;2024-01-15T03:34:59;14.93;;;6.70;;
18239;SDS011;9244;50.828;4.718;2024-01-15T03:37:25;14.73;;;7.97;;
18239;SDS011;9244;50.828;4.718;2024-01-15T03:39:51;14.93;;;8.00;;
18239;SDS011;9244;50.828;4.718;2024-01-15T03:42:16;15.50;;;9.40;;
18239;SDS011;9244;50.828;4.718;2024-01-15T03:44:45;13.27;;;9.17;;
18239;SDS011;9244;50.828;4.718;2024-01-15T03:47:10;14.60;;;8.50;;
18239;SDS011;9244;50.828;4.718;2024-01-15T03:49:36;11.70;;;7.37;;
18239;SDS011;9244;50.828;4.718;2024-01-15T03:52:01;16.83;;;10.03;;
18239;SDS011;9244;50.828;4.718;2024-01-15T03:54:30;16.93;;;10.27;;
18239;SDS011;9244;50.828;4.718;2024-01-15T03:56:58;18.00;;;10.63;;
18239;SDS011;9244;50.828;4.718;2024-01-15T03:59:28;20.73;;;12.27;;
18239;SDS011;9244;50.828;4.718;2024-01-15T04:01:53;21.70;;;12.90;;
18239;SDS011;9244;50.828;4.718;2024-01-15T04:04:21;17.60;;;11.17;;
18239;SDS011;9244;50.828;4.718;2024-01-15T04:06:47;19.57;;;12.60;;
18239;SDS011;9244;50.828;4.718;2024-01-15T04:09:13;22.73;;;13.33;;
18239;SDS011;9244;50.828;4.718;2024-01-15T04:11:43;17.83;;;10.53;;
18239;SDS011;9244;50.828;4.718;2024-01-15T04:14:10;20.93;;;12.23;;
18239;SDS011;9244;50.828;4.718;2024-01-15T04:16:37;20.17;;;12.60;;
18239;SDS011;9244;50.828;4.718;2024-01-15T04:19:02;21.83;;;12.80;;
18239;SDS011;9244;50.828;4.718;2024-01-15T04:21:28;23.90;;;13.60;;
18239;SDS011;9244;50.828;4.718;2024-01-15T04:23:54;26.40;;;15.07;;
18239;SDS011;9244;50.828;4.718;2024-01-15T04:26:19;25.03;;;14.70;;
18239;SDS011;9244;50.828;4.718;2024-01-15T04:28:47;24.00;;;14.53;;
18239;SDS011;9244;50.828;4.718;2024-01-15T04:31:22;25.83;;;14.60;;
18239;SDS011;9244;50.828;4.718;2024-01-15T04:33:48;26.77;;;14.00;;
18239;SDS011;9244;50.828;4.718;2024-01-15T04:36:14;28.00;;;15.33;;
18239;SDS011;9244;50.828;4.718;2024-01-15T04:38:40;28.73;;;14.40;;
18239;SDS011;9244;50.828;4.718;2024-01-15T04:41:08;18.97;;;11.27;;
18239;SDS011;9244;50.828;4.718;2024-01-15T04:43:39;27.07;;;14.03;;
18239;SDS011;9244;50.828;4.718;2024-01-15T04:46:08;26.90;;;15.03;;
18239;SDS011;9244;50.828;4.718;2024-01-15T04:48:36;22.43;;;12.10;;
18239;SDS011;9244;50.828;4.718;2024-01-15T04:51:03;28.67;;;15.67;;
18239;SDS011;9244;50.828;4.718;2024-01-15T04:53:30;18.30;;;9.83;;
18239;SDS011;9244;50.828;4.718;2024-01-15T04:55:58;26.13;;;15.33;;
18239;SDS011;9244;50.828;4.718;2024-01-15T04:58:24;25.13;;;14.30;;
18239;SDS011;9244;50.828;4.718;2024-01-15T05:00:51;30.03;;;16.67;;
18239;SDS011;9244;50.828;4.718;2024-01-15T05:03:17;25.90;;;16.07;;
18239;SDS011;9244;50.828;4.718;2024-01-15T05:05:43;22.90;;;13.03;;
18239;SDS011;9244;50.828;4.718;2024-01-15T05:08:08;29.10;;;16.13;;
18239;SDS011;9244;50.828;4.718;2024-01-15T05:10:34;22.40;;;11.53;;
18239;SDS011;9244;50.828;4.718;2024-01-15T05:13:02;26.43;;;15.80;;
18239;SDS011;9244;50.828;4.718;2024-01-15T05:15:28;27.00;;;15.43;;
18239;SDS011;9244;50.828;4.718;2024-01-15T05:17:54;25.27;;;15.37;;
18239;SDS011;9244;50.828;4.718;2024-01-15T05:20:20;25.60;;;15.37;;
18239;SDS011;9244;50.828;4.718;2024-01-15T05:22:46;22.80;;;14.47;;
18239;SDS011;9244;50.828;4.718;2024-01-15T05:25:11;24.83;;;14.13;;
18239;SDS011;9244;50.828;4.718;2024-01-15T05:27:37;22.40;;;13.30;;
18239;SDS011;9244;50.828;4.718;2024-01-15T05:30:05;23.23;;;12.77;;
18239;SDS011;9244;50.828;4.718;2024-01-15T05:32:31;23.03;;;13.30;;
18239;SDS011;9244;50.828;4.718;2024-01-15T05:34:57;20.43;;;11.53;;
18239;SDS011;9244;50.828;4.718;2024-01-15T05:37:23;21.63;;;12.60;;
18239;SDS011;9244;50.828;4.718;2024-01-15T05:39:48;21.40;;;12.30;;
18239;SDS011;9244;50.828;4.718;2024-01-15T05:42:14;26.73;;;13.40;;
18239;SDS011;9244;50.828;4.718;2024-01-15T05:44:39;18.10;;;11.37;;
18239;SDS011;9244;50.828;4.718;2024-01-15T05:47:07;13.97;;;8.77;;
18239;SDS011;9244;50.828;4.718;2024-01-15T05:49:33;16.10;;;10.73;;
18239;SDS011;9244;50.828;4.718;2024-01-15T05:51:58;17.40;;;9.50;;
18239;SDS011;9244;50.828;4.718;2024-01-15T05:54:27;15.67;;;8.43;;
18239;SDS011;9244;50.828;4.718;2024-01-15T05:56:55;15.10;;;8.30;;
18239;SDS011;9244;50.828;4.718;2024-01-15T05:59:20;11.77;;;7.40;;
18239;SDS011;9244;50.828;4.718;2024-01-15T06:01:48;11.97;;;7.37;;
18239;SDS011;9244;50.828;4.718;2024-01-15T06:04:16;10.30;;;7.27;;
18239;SDS011;9244;50.828;4.718;2024-01-15T06:06:42;12.43;;;7.13;;
18239;SDS011;9244;50.828;4.718;2024-01-15T06:09:07;11.30;;;6.40;;
18239;SDS011;9244;50.828;4.718;2024-01-15T06:11:34;10.97;;;6.90;;
18239;SDS011;9244;50.828;4.718;2024-01-15T06:13:59;11.50;;;7.10;;
18239;SDS011;9244;50.828;4.718;2024-01-15T06:16:28;11.40;;;6.50;;
18239;SDS011;9244;50.828;4.718;2024-01-15T06:18:54;11.03;;;6.40;;
18239;SDS011;9244;50.828;4.718;2024-01-15T06:21:22;14.37;;;6.60;;
18239;SDS011;9244;50.828;4.718;2024-01-15T06:23:47;11.27;;;5.70;;
18239;SDS011;9244;50.828;4.718;2024-01-15T06:26:15;8.13;;;5.37;;
18239;SDS011;9244;50.828;4.718;2024-01-15T06:28:41;7.57;;;5.57;;
18239;SDS011;9244;50.828;4.718;2024-01-15T06:31:11;9.87;;;5.57;;
18239;SDS011;9244;50.828;4.718;2024-01-15T06:33:39;7.53;;;5.20;;
18239;SDS011;9244;50.828;4.718;2024-01-15T06:36:05;9.13;;;5.37;;
18239;SDS011;9244;50.828;4.718;2024-01-15T06:38:31;8.50;;;4.63;;
18239;SDS011;9244;50.828;4.718;2024-01-15T06:40:57;13.17;;;6.40;;
18239;SDS011;9244;50.828;4.718;2024-01-15T06:43:23;7.53;;;4.93;;
18239;SDS011;9244;50.828;4.718;2024-01-15T06:45:51;10.43;;;5.87;;
18239;SDS011;9244;50.828;4.718;2024-01-15T06:48:19;7.67;;;4.50;;
18239;SDS011;9244;50.828;4.718;2024-01-15T06:50:47;7.10;;;4.30;;
18239;SDS011;9244;50.828;4.718;2024-01-15T06:53:13;11.83;;;4.87;;
18239;SDS011;9244;50.828;4.718;2024-01-15T06:55:38;11.53;;;4.47;;
18239;SDS011;9244;50.828;4.718;2024-01-15T06:58:04;5.77;;;3.87;;
18239;SDS011;9244;50.828;4.718;2024-01-15T07:00:30;9.37;;;4.00;;
18239;SDS011;9244;50.828;4.718;2024-01-15T07:02:58;7.37;;;4.10;;
18239;SDS011;9244;50.828;4.718;2024-01-15T07:05:24;10.87;;;3.80;;
18239;SDS011;9244;50.828;4.718;2024-01-15T07:07:49;7.53;;;3.37;;
18239;SDS011;9244;50.828;4.718;2024-01-15T07:10:17;8.53;;;3.60;;
18239;SDS011;9244;50.828;4.718;2024-01-15T07:12:48;9.60;;;4.33;;
18239;SDS011;9244;50.828;4.718;2024-01-15T07:15:14;6.87;;;3.40;;
18239;SDS011;9244;50.828;4.718;2024-01-15T07:17:43;10.43;;;3.97;;
18239;SDS011;9244;50.828;4.718;2024-01-15T07:20:11;11.23;;;4.33;;
18239;SDS011;9244;50.828;4.718;2024-01-15T07:22:38;8.93;;;4.50;;
18239;SDS011;9244;50.828;4.718;2024-01-15T07:25:04;6.13;;;3.53;;
18239;SDS011;9244;50.828;4.718;2024-01-15T07:27:31;7.30;;;4.47;;
18239;SDS011;9244;50.828;4.718;2024-01-15T07:29:57;8.50;;;4.37;;
18239;SDS011;9244;50.828;4.718;2024-01-15T07:32:23;5.60;;;4.07;;
18239;SDS011;9244;50.828;4.718;2024-01-15T07:34:49;7.87;;;4.50;;
18239;SDS011;9244;50.828;4.718;2024-01-15T07:37:15;5.37;;;3.47;;
18239;SDS011;9244;50.828;4.718;2024-01-15T07:39:43;7.40;;;5.50;;
18239;SDS011;9244;50.828;4.718;2024-01-15T07:42:08;8.53;;;5.97;;
18239;SDS011;9244;50.828;4.718;2024-01-15T07:44:34;9.47;;;6.13;;
18239;SDS011;9244;50.828;4.718;2024-01-15T07:47:00;8.23;;;5.47;;
18239;SDS011;9244;50.828;4.718;2024-01-15T07:49:25;10.03;;;5.33;;
18239;SDS011;9244;50.828;4.718;2024-01-15T07:51:53;7.37;;;5.27;;
18239;SDS011;9244;50.828;4.718;2024-01-15T07:54:19;7.60;;;5.30;;
18239;SDS011;9244;50.828;4.718;2024-01-15T07:56:58;10.37;;;5.57;;
18239;SDS011;9244;50.828;4.718;2024-01-15T07:59:25;8.87;;;6.40;;
18239;SDS011;9244;50.828;4.718;2024-01-15T08:01:52;9.37;;;4.93;;
18239;SDS011;9244;50.828;4.718;2024-01-15T08:04:18;8.53;;;5.83;;
18239;SDS011;9244;50.828;4.718;2024-01-15T08:06:44;10.00;;;6.10;;
18239;SDS011;9244;50.828;4.718;2024-01-15T08:09:10;12.70;;;5.93;;
18239;SDS011;9244;50.828;4.718;2024-01-15T08:11:39;9.17;;;6.50;;
18239;SDS011;9244;50.828;4.718;2024-01-15T08:14:06;9.23;;;5.37;;
18239;SDS011;9244;50.828;4.718;2024-01-15T08:16:32;10.17;;;6.60;;
18239;SDS011;9244;50.828;4.718;2024-01-15T08:18:57;10.43;;;7.53;;
18239;SDS011;9244;50.828;4.718;2024-01-15T08:21:26;12.67;;;7.30;;
18239;SDS011;9244;50.828;4.718;2024-01-15T08:23:58;10.77;;;7.50;;
18239;SDS011;9244;50.828;4.718;2024-01-15T08:26:25;9.73;;;7.40;;
18239;SDS011;9244;50.828;4.718;2024-01-15T08:28:50;10.07;;;7.23;;
18239;SDS011;9244;50.828;4.718;2024-01-15T08:31:16;9.97;;;6.67;;
18239;SDS011;9244;50.828;4.718;2024-01-15T08:33:42;13.40;;;7.10;;
18239;SDS011;9244;50.828;4.718;2024-01-15T08:36:11;10.80;;;7.43;;
18239;SDS011;9244;50.828;4.718;2024-01-15T08:38:38;11.63;;;7.33;;
18239;SDS011;9244;50.828;4.718;2024-01-15T08:41:04;8.03;;;6.30;;
18239;SDS011;9244;50.828;4.718;2024-01-15T08:43:30;9.93;;;6.70;;
18239;SDS011;9244;50.828;4.718;2024-01-15T08:46:00;11.77;;;6.20;;
18239;SDS011;9244;50.828;4.718;2024-01-15T08:48:29;9.47;;;5.50;;
18239;SDS011;9244;50.828;4.718;2024-01-15T08:51:00;9.77;;;5.90;;
18239;SDS011;9244;50.828;4.718;2024-01-15T08:53:25;11.47;;;6.10;;
18239;SDS011;9244;50.828;4.718;2024-01-15T08:55:52;9.53;;;5.07;;
18239;SDS011;9244;50.828;4.718;2024-01-15T08:58:17;10.93;;;4.57;;
18239;SDS011;9244;50.828;4.718;2024-01-15T09:00:43;6.70;;;4.07;;
18239;SDS011;9244;50.828;4.718;2024-01-15T09:03:11;8.57;;;5.50;;
18239;SDS011;9244;50.828;4.718;2024-01-15T09:05:39;6.20;;;4.37;;
18239;SDS011;9244;50.828;4.718;2024-01-15T09:08:06;7.67;;;4.00;;
18239;SDS011;9244;50.828;4.718;2024-01-15T09:10:31;7.23;;;3.33;;
18239;SDS011;9244;50.828;4.718;2024-01-15T09:12:57;9.23;;;3.77;;
18239;SDS011;9244;50.828;4.718;2024-01-15T09:15:25;7.53;;;4.30;;
18239;SDS011;9244;50.828;4.718;2024-01-15T09:17:51;8.93;;;3.43;;
18239;SDS011;9244;50.828;4.718;2024-01-15T09:20:16;5.33;;;3.00;;
18239;SDS011;9244;50.828;4.718;2024-01-15T09:22:43;4.67;;;2.60;;
18239;SDS011;9244;50.828;4.718;2024-01-15T09:25:09;8.83;;;2.90;;
18239;SDS011;9244;50.828;4.718;2024-01-15T09:27:35;6.50;;;2.93;;
18239;SDS011;9244;50.828;4.718;2024-01-15T09:30:02;7.83;;;2.83;;
18239;SDS011;9244;50.828;4.718;2024-01-15T09:32:28;7.07;;;2.30;;
18239;SDS011;9244;50.828;4.718;2024-01-15T09:34:53;5.50;;;2.47;;
18239;SDS011;9244;50.828;4.718;2024-01-15T09:37:20;4.83;;;2.23;;
18239;SDS011;9244;50.828;4.718;2024-01-15T09:39:48;7.30;;;2.70;;
18239;SDS011;9244;50.828;4.718;2024-01-15T09:42:16;4.63;;;2.27;;
18239;SDS011;9244;50.828;4.718;2024-01-15T09:44:42;6.30;;;2.43;;
18239;SDS011;9244;50.828;4.718;2024-01-15T09:47:08;6.73;;;2.07;;
18239;SDS011;9244;50.828;4.718;2024-01-15T09:49:34;5.37;;;2.10;;
18239;SDS011;9244;50.828;4.718;2024-01-15T09:52:00;4.80;;;1.73;;
18239;SDS011;9244;50.828;4.718;2024-01-15T09:54:27;3.80;;;1.77;;
18239;SDS011;9244;50.828;4.718;2024-01-15T09:56:54;6.60;;;1.57;;
18239;SDS011;9244;50.828;4.718;2024-01-15T09:59:20;7.70;;;2.10;;
18239;SDS011;9244;50.828;4.718;2024-01-15T10:01:49;6.07;;;1.70;;
18239;SDS011;9244;50.828;4.718;2024-01-15T10:04:18;4.10;;;1.40;;
18239;SDS011;9244;50.828;4.718;2024-01-15T10:06:47;5.93;;;1.90;;
18239;SDS011;9244;50.828;4.718;2024-01-15T10:09:15;7.93;;;1.80;;
18239;SDS011;9244;50.828;4.718;2024-01-15T10:11:42;6.17;;;2.10;;
18239;SDS011;9244;50.828;4.718;2024-01-15T10:14:09;3.00;;;1.50;;
18239;SDS011;9244;50.828;4.718;2024-01-15T10:16:38;7.47;;;1.60;;
18239;SDS011;9244;50.828;4.718;2024-01-15T10:19:09;3.43;;;1.50;;
18239;SDS011;9244;50.828;4.718;2024-01-15T10:21:35;4.50;;;2.43;;
18239;SDS011;9244;50.828;4.718;2024-01-15T10:24:03;6.13;;;1.50;;
18239;SDS011;9244;50.828;4.718;2024-01-15T10:26:30;4.13;;;1.97;;
18239;SDS011;9244;50.828;4.718;2024-01-15T10:28:56;13.13;;;1.90;;
18239;SDS011;9244;50.828;4.718;2024-01-15T10:31:23;7.33;;;2.60;;
18239;SDS011;9244;50.828;4.718;2024-01-15T10:33:51;4.33;;;1.43;;
18239;SDS011;9244;50.828;4.718;2024-01-15T10:36:17;10.03;;;1.70;;
18239;SDS011;9244;50.828;4.718;2024-01-15T10:38:43;8.10;;;1.73;;
18239;SDS011;9244;50.828;4.718;2024-01-15T10:41:12;4.80;;;1.37;;
18239;SDS011;9244;50.828;4.718;2024-01-15T10:43:38;5.43;;;1.17;;
18239;SDS011;9244;50.828;4.718;2024-01-15T10:46:06;4.17;;;1.40;;
18239;SDS011;9244;50.828;4.718;2024-01-15T10:48:32;7.73;;;1.67;;
18239;SDS011;9244;50.828;4.718;2024-01-15T10:51:00;8.70;;;1.83;;
18239;SDS011;9244;50.828;4.718;2024-01-15T10:53:35;8.03;;;1.73;;
18239;SDS011;9244;50.828;4.718;2024-01-15T10:56:04;8.10;;;1.67;;
18239;SDS011;9244;50.828;4.718;2024-01-15T10:58:33;6.03;;;2.00;;
18239;SDS011;9244;50.828;4.718;2024-01-15T11:01:00;3.47;;;1.50;;
18239;SDS011;9244;50.828;4.718;2024-01-15T11:03:26;3.90;;;1.30;;
18239;SDS011;9244;50.828;4.718;2024-01-15T11:05:53;7.30;;;1.87;;
18239;SDS011;9244;50.828;4.718;2024-01-15T11:08:19;5.67;;;1.67;;
18239;SDS011;9244;50.828;4.718;2024-01-15T11:10:52;4.37;;;1.80;;
18239;SDS011;9244;50.828;4.718;2024-01-15T11:13:20;5.23;;;1.70;;
18239;SDS011;9244;50.828;4.718;2024-01-15T11:16:02;6.97;;;1.67;;
18239;SDS011;9244;50.828;4.718;2024-01-15T11:18:30;8.97;;;2.63;;
18239;SDS011;9244;50.828;4.718;2024-01-15T11:29:10;3.00;;;1.10;;
18239;SDS011;9244;50.828;4.718;2024-01-15T11:37:15;4.77;;;1.40;;
18239;SDS011;9244;50.828;4.718;2024-01-15T11:39:42;3.23;;;1.30;;
18239;SDS011;9244;50.828;4.718;2024-01-15T11:42:08;3.77;;;1.40;;
18239;SDS011;9244;50.828;4.718;2024-01-15T11:44:38;3.97;;;1.40;;
18239;SDS011;9244;50.828;4.718;2024-01-15T11:47:07;4.30;;;1.30;;
18239;SDS011;9244;50.828;4.718;2024-01-15T11:52:36;4.57;;;1.33;;
18239;SDS011;9244;50.828;4.718;2024-01-15T11:55:10;5.03;;;1.20;;
18239;SDS011;9244;50.828;4.718;2024-01-15T11:57:45;4.33;;;1.37;;
18239;SDS011;9244;50.828;4.718;2024-01-15T12:00:14;5.07;;;1.17;;
18239;SDS011;9244;50.828;4.718;2024-01-15T12:02:43;6.87;;;1.23;;
18239;SDS011;9244;50.828;4.718;2024-01-15T12:05:10;2.43;;;1.17;;
18239;SDS011;9244;50.828;4.718;2024-01-15T12:07:38;4.37;;;1.00;;
18239;SDS011;9244;50.828;4.718;2024-01-15T12:10:08;6.03;;;1.17;;
18239;SDS011;9244;50.828;4.718;2024-01-15T12:12:44;2.27;;;0.80;;
18239;SDS011;9244;50.828;4.718;2024-01-15T12:15:12;7.10;;;1.40;;
18239;SDS011;9244;50.828;4.718;2024-01-15T12:17:41;3.13;;;1.07;;
18239;SDS011;9244;50.828;4.718;2024-01-15T12:20:10;5.17;;;1.37;;
18239;SDS011;9244;50.828;4.718;2024-01-15T12:22:41;5.30;;;1.30;;
18239;SDS011;9244;50.828;4.718;2024-01-15T12:25:07;4.90;;;1.43;;
18239;SDS011;9244;50.828;4.718;2024-01-15T12:27:35;5.80;;;1.30;;
18239;SDS011;9244;50.828;4.718;2024-01-15T12:30:02;3.20;;;2.00;;
18239;SDS011;9244;50.828;4.718;2024-01-15T12:32:30;5.53;;;1.20;;
18239;SDS011;9244;50.828;4.718;2024-01-15T12:35:00;4.40;;;1.13;;
18239;SDS011;9244;50.828;4.718;2024-01-15T12:37:25;5.70;;;1.37;;
18239;SDS011;9244;50.828;4.718;2024-01-15T12:39:51;3.70;;;1.20;;
18239;SDS011;9244;50.828;4.718;2024-01-15T12:42:20;8.13;;;1.80;;
18239;SDS011;9244;50.828;4.718;2024-01-15T12:44:48;6.47;;;1.30;;
18239;SDS011;9244;50.828;4.718;2024-01-15T12:47:17;4.87;;;1.67;;
18239;SDS011;9244;50.828;4.718;2024-01-15T12:49:46;2.53;;;1.30;;
18239;SDS011;9244;50.828;4.718;2024-01-15T12:52:18;4.80;;;1.57;;
18239;SDS011;9244;50.828;4.718;2024-01-15T12:54:44;4.80;;;1.50;;
18239;SDS011;9244;50.828;4.718;2024-01-15T12:57:12;7.53;;;1.03;;
18239;SDS011;9244;50.828;4.718;2024-01-15T12:59:38;5.03;;;1.43;;
18239;SDS011;9244;50.828;4.718;2024-01-15T13:02:06;6.60;;;1.63;;
18239;SDS011;9244;50.828;4.718;2024-01-15T13:04:32;3.73;;;1.60;;
18239;SDS011;9244;50.828;4.718;2024-01-15T13:06:58;3.60;;;1.80;;
18239;SDS011;9244;50.828;4.718;2024-01-15T13:09:23;6.90;;;2.20;;
18239;SDS011;9244;50.828;4.718;2024-01-15T13:11:49;6.87;;;1.60;;
18239;SDS011;9244;50.828;4.718;2024-01-15T13:14:17;5.03;;;1.50;;
18239;SDS011;9244;50.828;4.718;2024-01-15T13:16:45;4.40;;;1.43;;
18239;SDS011;9244;50.828;4.718;2024-01-15T13:19:11;2.40;;;1.20;;
18239;SDS011;9244;50.828;4.718;2024-01-15T13:21:38;5.73;;;1.50;;
18239;SDS011;9244;50.828;4.718;2024-01-15T13:24:07;4.03;;;1.33;;
18239;SDS011;9244;50.828;4.718;2024-01-15T13:26:34;5.83;;;1.73;;
18239;SDS011;9244;50.828;4.718;2024-01-15T13:29:02;6.83;;;2.70;;
18239;SDS011;9244;50.828;4.718;2024-01-15T13:31:29;3.67;;;1.53;;
18239;SDS011;9244;50.828;4.718;2024-01-15T13:33:55;3.47;;;1.10;;
18239;SDS011;9244;50.828;4.718;2024-01-15T13:36:21;3.00;;;2.10;;
18239;SDS011;9244;50.828;4.718;2024-01-15T13:38:51;2.00;;;0.90;;
18239;SDS011;9244;50.828;4.718;2024-01-15T13:41:18;1.70;;;0.90;;
18239;SDS011;9244;50.828;4.718;2024-01-15T13:43:48;1.80;;;1.10;;
18239;SDS011;9244;50.828;4.718;2024-01-15T13:46:15;2.60;;;1.20;;
18239;SDS011;9244;50.828;4.718;2024-01-15T13:48:43;1.60;;;1.23;;
18239;SDS011;9244;50.828;4.718;2024-01-15T13:51:13;2.90;;;2.20;;
18239;SDS011;9244;50.828;4.718;2024-01-15T13:53:43;2.60;;;1.50;;
18239;SDS011;9244;50.828;4.718;2024-01-15T13:56:09;1.47;;;1.03;;
18239;SDS011;9244;50.828;4.718;2024-01-15T13:58:35;2.83;;;1.53;;
18239;SDS011;9244;50.828;4.718;2024-01-15T14:01:01;1.50;;;1.03;;
18239;SDS011;9244;50.828;4.718;2024-01-15T14:03:31;3.30;;;1.10;;
18239;SDS011;9244;50.828;4.718;2024-01-15T14:05:59;1.27;;;0.90;;
18239;SDS011;9244;50.828;4.718;2024-01-15T14:08:27;4.37;;;1.17;;
18239;SDS011;9244;50.828;4.718;2024-01-15T14:10:55;3.90;;;0.80;;
18239;SDS011;9244;50.828;4.718;2024-01-15T14:13:22;5.23;;;0.70;;
18239;SDS011;9244;50.828;4.718;2024-01-15T14:15:48;1.93;;;0.93;;
18239;SDS011;9244;50.828;4.718;2024-01-15T14:18:15;1.50;;;0.70;;
18239;SDS011;9244;50.828;4.718;2024-01-15T14:20:44;3.40;;;1.40;;
18239;SDS011;9244;50.828;4.718;2024-01-15T14:23:09;3.77;;;1.70;;
18239;SDS011;9244;50.828;4.718;2024-01-15T14:25:35;5.57;;;1.23;;
18239;SDS011;9244;50.828;4.718;2024-01-15T14:28:01;3.90;;;1.10;;
18239;SDS011;9244;50.828;4.718;2024-01-15T14:30:27;5.07;;;1.10;;
18239;SDS011;9244;50.828;4.718;2024-01-15T14:32:52;2.07;;;1.07;;
18239;SDS011;9244;50.828;4.718;2024-01-15T14:35:18;2.93;;;1.77;;
18239;SDS011;9244;50.828;4.718;2024-01-15T14:37:44;2.30;;;1.60;;
18239;SDS011;9244;50.828;4.718;2024-01-15T14:40:10;3.80;;;1.40;;
18239;SDS011;9244;50.828;4.718;2024-01-15T14:42:37;3.43;;;1.90;;
18239;SDS011;9244;50.828;4.718;2024-01-15T14:45:03;5.73;;;1.53;;
18239;SDS011;9244;50.828;4.718;2024-01-15T14:47:33;2.23;;;1.20;;
18239;SDS011;9244;50.828;4.718;2024-01-15T14:50:00;3.43;;;1.90;;
18239;SDS011;9244;50.828;4.718;2024-01-15T14:52:26;6.10;;;3.97;;
18239;SDS011;9244;50.828;4.718;2024-01-15T14:54:51;4.10;;;3.27;;
18239;SDS011;9244;50.828;4.718;2024-01-15T14:57:17;2.10;;;1.17;;
18239;SDS011;9244;50.828;4.718;2024-01-15T14:59:45;3.10;;;1.40;;
18239;SDS011;9244;50.828;4.718;2024-01-15T15:02:11;2.20;;;2.00;;
18239;SDS011;9244;50.828;4.718;2024-01-15T15:04:40;2.70;;;2.30;;
18239;SDS011;9244;50.828;4.718;2024-01-15T15:07:06;4.50;;;2.67;;
18239;SDS011;9244;50.828;4.718;2024-01-15T15:09:34;6.37;;;2.60;;
18239;SDS011;9244;50.828;4.718;2024-01-15T15:12:02;10.23;;;2.70;;
18239;SDS011;9244;50.828;4.718;2024-01-15T15:14:30;4.63;;;2.37;;
18239;SDS011;9244;50.828;4.718;2024-01-15T15:16:56;3.47;;;2.30;;
18239;SDS011;9244;50.828;4.718;2024-01-15T15:19:22;4.20;;;1.90;;